createdAt,value
2022-08-20T00:00:05.581Z,4.70
2022-08-20T00:03:13.626Z,3.17
2022-08-20T00:06:19.121Z,3.30
2022-08-20T00:09:20.851Z,9.95
2022-08-20T00:12:22.725Z,2.83
2022-08-20T00:15:29.407Z,5.75
2022-08-20T00:18:31.184Z,5.03
2022-08-20T00:21:33.463Z,5.13
2022-08-20T00:24:36.932Z,6.18
2022-08-20T00:27:38.878Z,4.75
2022-08-20T00:30:43.501Z,5.88
2022-08-20T00:33:45.760Z,4.82
2022-08-20T00:36:47.519Z,7.20
2022-08-20T00:39:49.229Z,3.17
2022-08-20T00:42:57.419Z,3.45
2022-08-20T00:46:01.138Z,3.33
2022-08-20T00:49:07.945Z,5.07
2022-08-20T00:52:14.134Z,4.63
2022-08-20T00:55:18.026Z,8.10
2022-08-20T00:58:20.036Z,7.95
2022-08-20T01:01:22.985Z,6.43
2022-08-20T01:04:28.017Z,5.30
2022-08-20T01:07:34.745Z,3.50
2022-08-20T01:10:39.449Z,5.25
2022-08-20T01:13:41.494Z,3.60
2022-08-20T01:16:44.936Z,4.88
2022-08-20T01:20:01.622Z,3.17
2022-08-20T01:23:31.091Z,4.30
2022-08-20T01:26:42.791Z,2.97
2022-08-20T01:29:45.021Z,4.88
2022-08-20T01:32:46.972Z,4.03
2022-08-20T01:35:50.443Z,3.42
2022-08-20T01:38:54.703Z,2.63
2022-08-20T01:42:30.349Z,4.85
2022-08-20T01:45:33.148Z,4.15
2022-08-20T01:48:34.830Z,4.18
2022-08-20T01:51:37.031Z,3.47
2022-08-20T01:54:39.318Z,3.38
2022-08-20T01:57:41.316Z,3.42
2022-08-20T02:00:43.350Z,2.63
2022-08-20T02:03:45.082Z,3.03
2022-08-20T02:06:56.531Z,3.08
2022-08-20T02:10:00.630Z,3.15
2022-08-20T02:13:02.882Z,4.50
2022-08-20T02:16:06.017Z,3.17
2022-08-20T02:19:15.266Z,2.90
2022-08-20T02:22:22.463Z,2.53
2022-08-20T02:25:28.746Z,2.67
2022-08-20T02:28:33.122Z,2.50
2022-08-20T02:31:36.220Z,3.92
2022-08-20T02:34:45.493Z,3.03
2022-08-20T02:37:47.456Z,2.38
2022-08-20T02:40:50.060Z,3.65
2022-08-20T02:43:51.774Z,1.95
2022-08-20T02:46:53.568Z,2.35
2022-08-20T02:49:55.388Z,1.88
2022-08-20T02:52:57.103Z,2.47
2022-08-20T02:55:59.761Z,2.35
2022-08-20T02:59:01.634Z,2.88
2022-08-20T03:02:03.548Z,4.00
2022-08-20T03:05:05.748Z,2.88
2022-08-20T03:08:10.628Z,2.00
2022-08-20T03:11:12.921Z,2.55
2022-08-20T03:14:14.769Z,2.10
2022-08-20T03:17:16.586Z,2.38
2022-08-20T03:20:18.420Z,3.30
2022-08-20T03:23:26.096Z,1.52
2022-08-20T03:26:27.823Z,2.03
2022-08-20T03:29:30.056Z,1.92
2022-08-20T03:32:31.867Z,3.80
2022-08-20T03:35:35.248Z,1.52
2022-08-20T03:38:37.106Z,2.22
2022-08-20T03:41:39.292Z,1.15
2022-08-20T03:44:41.015Z,1.20
2022-08-20T03:47:42.746Z,1.42
2022-08-20T03:50:45.562Z,1.27
2022-08-20T03:53:47.258Z,0.73
2022-08-20T03:56:48.988Z,1.20
2022-08-20T03:59:57.995Z,1.33
2022-08-20T04:03:00.864Z,1.02
2022-08-20T04:06:03.042Z,0.80
2022-08-20T04:09:04.956Z,1.13
2022-08-20T04:12:07.416Z,1.48
2022-08-20T04:15:12.532Z,1.33
2022-08-20T04:18:15.018Z,0.70
2022-08-20T04:21:16.804Z,0.38
2022-08-20T04:24:22.005Z,0.55
2022-08-20T04:27:33.119Z,2.47
2022-08-20T04:30:34.951Z,1.17
2022-08-20T04:33:36.704Z,1.00
2022-08-20T04:36:38.448Z,0.73
2022-08-20T04:39:40.174Z,1.95
2022-08-20T04:42:41.887Z,0.63
2022-08-20T04:45:46.411Z,1.17
2022-08-20T04:48:48.684Z,1.38
2022-08-20T04:51:51.008Z,0.90
2022-08-20T04:54:52.837Z,1.15
2022-08-20T04:57:55.491Z,0.70
2022-08-20T05:01:01.692Z,1.20
2022-08-20T05:07:05.514Z,1.00
2022-08-20T05:10:10.059Z,2.40
2022-08-20T05:13:12.610Z,0.88
2022-08-20T05:16:15.196Z,1.20
2022-08-20T05:19:17.426Z,0.95
2022-08-20T05:22:19.270Z,1.45
2022-08-20T05:25:21.903Z,1.65
2022-08-20T05:28:27.327Z,1.45
2022-08-20T05:31:32.467Z,0.90
2022-08-20T05:34:35.894Z,1.63
2022-08-20T05:37:41.177Z,0.80
2022-08-20T05:40:43.000Z,0.80
2022-08-20T05:43:45.702Z,1.10
2022-08-20T05:46:48.692Z,1.33
2022-08-20T05:49:50.472Z,0.10
2022-08-20T05:52:52.272Z,0.93
2022-08-20T05:55:54.336Z,1.20
2022-08-20T05:58:56.510Z,1.58
2022-08-20T06:01:58.221Z,0.73
2022-08-20T06:05:00.197Z,0.82
2022-08-20T06:08:05.803Z,0.90
2022-08-20T06:11:09.724Z,1.15
2022-08-20T06:14:11.587Z,1.00
2022-08-20T06:17:15.875Z,2.55
2022-08-20T06:20:17.646Z,2.20
2022-08-20T06:23:20.743Z,1.58
2022-08-20T06:26:24.096Z,0.80
2022-08-20T06:29:35.211Z,1.08
2022-08-20T06:32:37.348Z,1.60
2022-08-20T06:35:39.197Z,1.60
2022-08-20T06:38:41.408Z,1.38
2022-08-20T06:41:45.061Z,0.93
2022-08-20T06:44:50.881Z,1.35
2022-08-20T06:47:59.024Z,0.47
2022-08-20T06:51:01.550Z,0.70
2022-08-20T06:54:05.099Z,1.33
2022-08-20T06:57:06.872Z,1.40
2022-08-20T07:00:14.815Z,0.63
2022-08-20T07:03:16.811Z,1.23
2022-08-20T07:06:19.060Z,1.00
2022-08-20T07:09:21.644Z,1.00
2022-08-20T07:12:23.358Z,1.17
2022-08-20T07:15:27.807Z,0.95
2022-08-20T07:18:29.659Z,1.00
2022-08-20T07:21:31.415Z,10.52
2022-08-20T07:24:35.732Z,3.58
2022-08-20T07:27:39.641Z,0.90
2022-08-20T07:31:00.815Z,0.40
2022-08-20T07:34:15.688Z,1.30
2022-08-20T07:37:17.448Z,1.30
2022-08-20T07:40:26.123Z,3.78
2022-08-20T07:43:28.390Z,1.33
2022-08-20T07:46:31.615Z,0.95
2022-08-20T07:49:38.370Z,2.13
2022-08-20T07:52:40.365Z,1.63
2022-08-20T07:55:42.425Z,1.33
2022-08-20T07:58:59.871Z,1.30
2022-08-20T08:02:01.632Z,0.88
2022-08-20T08:05:05.396Z,0.95
2022-08-20T08:08:09.965Z,1.95
2022-08-20T08:11:12.119Z,1.92
2022-08-20T08:14:17.075Z,1.50
2022-08-20T08:17:19.428Z,1.23
2022-08-20T08:20:21.948Z,1.08
2022-08-20T08:23:32.043Z,0.70
2022-08-20T08:26:34.420Z,1.13
2022-08-20T08:29:37.239Z,0.98
2022-08-20T08:32:59.567Z,1.23
2022-08-20T08:36:06.129Z,0.63
2022-08-20T08:39:08.009Z,0.65
2022-08-20T08:42:27.137Z,0.40
2022-08-20T08:45:35.476Z,0.70
2022-08-20T08:48:46.066Z,1.00
2022-08-20T08:51:52.195Z,0.32
2022-08-20T08:55:00.145Z,0.65
2022-08-20T08:58:04.355Z,0.60
2022-08-20T09:01:55.163Z,1.23
2022-08-20T09:04:45.355Z,0.32
2022-08-20T09:07:53.149Z,0.47
2022-08-20T09:11:06.123Z,0.60
2022-08-20T09:14:07.839Z,3.40
2022-08-20T09:17:09.619Z,0.95
2022-08-20T09:20:11.564Z,0.50
2022-08-20T09:23:13.397Z,0.50
2022-08-20T09:26:15.166Z,0.82
2022-08-20T09:29:17.318Z,0.50
2022-08-20T09:32:24.561Z,0.52
2022-08-20T09:35:28.934Z,0.40
2022-08-20T09:38:30.701Z,0.35
2022-08-20T09:41:33.729Z,0.68
2022-08-20T09:44:36.371Z,0.60
2022-08-20T09:47:39.787Z,0.40
2022-08-20T09:50:57.643Z,0.52
2022-08-20T09:53:59.980Z,0.13
2022-08-20T09:57:07.310Z,0.50
2022-08-20T10:00:12.361Z,1.23
2022-08-20T10:03:14.702Z,0.60
2022-08-20T10:06:20.534Z,0.32
2022-08-20T10:09:22.631Z,0.20
2022-08-20T10:12:24.364Z,0.65
2022-08-20T10:15:26.162Z,0.43
2022-08-20T10:18:27.902Z,0.20
2022-08-20T10:21:31.930Z,0.60
2022-08-20T10:24:36.127Z,0.45
2022-08-20T10:27:39.022Z,0.32
2022-08-20T10:30:40.746Z,2.47
2022-08-20T10:33:42.894Z,0.50
2022-08-20T10:36:44.857Z,0.60
2022-08-20T10:39:47.333Z,0.45
2022-08-20T10:42:49.145Z,0.30
2022-08-20T10:45:52.008Z,0.40
2022-08-20T10:48:53.808Z,0.43
2022-08-20T10:51:56.463Z,0.65
2022-08-20T10:54:59.120Z,0.75
2022-08-20T10:58:00.842Z,0.20
2022-08-20T11:01:02.641Z,0.20
2022-08-20T11:04:05.010Z,0.60
2022-08-20T11:07:49.431Z,1.52
2022-08-20T11:10:53.214Z,0.57
2022-08-20T11:13:54.988Z,0.55
2022-08-20T11:16:58.174Z,0.50
2022-08-20T11:20:01.080Z,0.90
2022-08-20T11:23:03.628Z,0.60
2022-08-20T11:26:05.611Z,0.63
2022-08-20T11:29:07.316Z,0.45
2022-08-20T11:32:09.042Z,0.73
2022-08-20T11:35:40.649Z,0.13
2022-08-20T11:38:33.194Z,0.50
2022-08-20T11:41:34.938Z,0.40
2022-08-20T11:44:37.091Z,1.00
2022-08-20T11:47:39.075Z,0.65
2022-08-20T11:50:41.207Z,0.80
2022-08-20T11:53:42.871Z,0.95
2022-08-20T11:56:45.817Z,0.52
2022-08-20T11:59:53.674Z,0.52
2022-08-20T12:02:55.619Z,0.35
2022-08-20T12:05:57.951Z,2.45
2022-08-20T12:09:00.087Z,1.48
2022-08-20T12:12:01.944Z,2.15
2022-08-20T12:15:04.287Z,1.52
2022-08-20T12:18:09.347Z,1.30
2022-08-20T12:21:11.843Z,2.38
2022-08-20T12:24:13.600Z,0.93
2022-08-20T12:27:20.184Z,1.45
2022-08-20T12:30:23.860Z,1.52
2022-08-20T12:33:26.185Z,0.85
2022-08-20T12:36:27.936Z,1.38
2022-08-20T12:39:31.588Z,0.95
2022-08-20T12:42:33.477Z,0.95
2022-08-20T12:45:36.214Z,1.98
2022-08-20T12:48:38.108Z,0.80
2022-08-20T12:51:39.803Z,0.63
2022-08-20T12:54:42.074Z,0.60
2022-08-20T12:57:46.898Z,0.80
2022-08-20T13:00:50.928Z,1.30
2022-08-20T13:03:52.984Z,2.97
2022-08-20T13:07:00.804Z,1.40
2022-08-20T13:10:05.170Z,0.85
2022-08-20T13:13:06.929Z,1.05
2022-08-20T13:16:08.644Z,1.00
2022-08-20T13:19:10.527Z,1.20
2022-08-20T13:22:14.044Z,0.65
2022-08-20T13:25:15.804Z,1.20
2022-08-20T13:28:17.549Z,1.15
2022-08-20T13:31:19.349Z,1.13
2022-08-20T13:34:21.806Z,0.50
2022-08-20T13:37:26.822Z,0.82
2022-08-20T13:40:28.689Z,2.83
2022-08-20T13:43:30.434Z,1.35
2022-08-20T13:46:32.139Z,1.50
2022-08-20T13:49:34.194Z,1.70
2022-08-20T13:52:37.444Z,3.08
2022-08-20T13:55:39.248Z,1.55
2022-08-20T13:58:41.054Z,1.05
2022-08-20T14:01:43.095Z,0.75
2022-08-20T14:04:45.449Z,0.73
2022-08-20T14:07:48.156Z,3.35
2022-08-20T14:10:51.587Z,4.63
2022-08-20T14:13:53.444Z,2.30
2022-08-20T14:16:55.240Z,0.88
2022-08-20T14:20:01.419Z,0.38
2022-08-20T14:23:05.225Z,1.55
2022-08-20T14:26:06.920Z,0.40
2022-08-20T14:29:08.669Z,0.80
2022-08-20T14:32:10.878Z,0.60
2022-08-20T14:35:13.730Z,2.00
2022-08-20T14:38:15.507Z,1.88
2022-08-20T14:41:17.290Z,0.47
2022-08-20T14:44:18.984Z,1.05
2022-08-20T14:47:26.190Z,0.20
2022-08-20T14:50:33.634Z,0.93
2022-08-20T14:53:40.470Z,1.13
2022-08-20T14:56:42.536Z,0.52
2022-08-20T14:59:45.361Z,0.65
2022-08-20T15:02:47.724Z,0.38
2022-08-20T15:05:50.333Z,1.95
2022-08-20T15:08:52.091Z,2.55
2022-08-20T15:11:53.825Z,1.02
2022-08-20T15:14:55.505Z,0.75
2022-08-20T15:18:01.469Z,0.82
2022-08-20T15:21:03.586Z,0.47
2022-08-20T15:24:15.755Z,0.73
2022-08-20T15:27:23.918Z,1.52
2022-08-20T15:30:25.804Z,1.15
2022-08-20T15:33:27.537Z,0.70
2022-08-20T15:36:29.240Z,1.00
2022-08-20T15:39:31.021Z,0.75
2022-08-20T15:42:32.917Z,1.15
2022-08-20T15:45:35.954Z,0.75
2022-08-20T15:48:41.810Z,2.55
2022-08-20T15:51:47.693Z,1.30
2022-08-20T15:54:49.473Z,1.38
2022-08-20T15:58:42.765Z,2.92
2022-08-20T16:02:05.720Z,0.77
2022-08-20T16:05:11.223Z,0.70
2022-08-20T16:08:31.754Z,1.00
2022-08-20T16:11:58.456Z,1.38
2022-08-20T16:15:05.205Z,1.20
2022-08-20T16:18:35.851Z,0.93
2022-08-20T16:21:40.728Z,1.20
2022-08-20T16:24:42.499Z,1.33
2022-08-20T16:28:04.898Z,1.90
2022-08-20T16:31:12.053Z,3.72
2022-08-20T16:34:47.569Z,2.63
2022-08-20T16:37:55.460Z,0.95
2022-08-20T16:41:06.833Z,1.17
2022-08-20T16:44:21.304Z,4.05
2022-08-20T16:47:31.788Z,1.80
2022-08-20T16:50:57.237Z,3.25
2022-08-20T16:53:58.930Z,1.23
2022-08-20T16:57:04.800Z,0.70
2022-08-20T17:00:13.822Z,1.48
2022-08-20T17:03:38.639Z,0.98
2022-08-20T17:06:48.282Z,2.80
2022-08-20T17:09:52.212Z,1.08
2022-08-20T17:13:22.506Z,0.82
2022-08-20T17:16:25.726Z,0.77
2022-08-20T17:19:33.887Z,0.90
2022-08-20T17:22:49.266Z,1.02
2022-08-20T17:26:01.969Z,0.17
2022-08-20T17:29:15.352Z,0.50
2022-08-20T17:32:22.723Z,1.00
2022-08-20T17:35:32.545Z,0.85
2022-08-20T17:38:59.282Z,0.70
2022-08-20T17:42:08.996Z,2.15
2022-08-20T17:45:25.013Z,0.80
2022-08-20T17:48:38.943Z,1.13
2022-08-20T17:51:53.876Z,0.90
2022-08-20T17:54:55.602Z,0.60
2022-08-20T17:58:02.637Z,1.83
2022-08-20T18:01:04.465Z,0.22
2022-08-20T18:04:11.489Z,1.17
2022-08-20T18:07:28.068Z,1.10
2022-08-20T18:10:30.895Z,0.50
2022-08-20T18:13:48.071Z,0.40
2022-08-20T18:17:10.943Z,0.60
2022-08-20T18:20:18.647Z,0.93
2022-08-20T18:23:41.026Z,1.20
2022-08-20T18:26:56.946Z,0.80
2022-08-20T18:33:08.694Z,1.23
2022-08-20T18:36:24.635Z,2.20
2022-08-20T18:39:35.483Z,0.32
2022-08-20T18:42:37.585Z,0.50
2022-08-20T18:45:39.732Z,0.57
2022-08-20T18:48:51.217Z,0.82
2022-08-20T18:51:53.111Z,0.93
2022-08-20T18:55:01.168Z,0.95
2022-08-20T18:58:08.019Z,0.80
2022-08-20T19:01:13.591Z,0.40
2022-08-20T19:04:29.700Z,0.15
2022-08-20T19:07:47.938Z,1.17
2022-08-20T19:11:06.878Z,3.70
2022-08-20T19:14:33.654Z,1.15
2022-08-20T19:17:57.446Z,0.77
2022-08-20T19:21:02.260Z,0.80
2022-08-20T19:24:06.633Z,1.25
2022-08-20T19:27:09.664Z,1.33
2022-08-20T19:30:11.738Z,0.93
2022-08-20T19:33:13.837Z,0.30
2022-08-20T19:36:28.208Z,0.80
2022-08-20T19:39:31.951Z,1.90
2022-08-20T19:42:42.483Z,0.45
2022-08-20T19:45:56.164Z,0.90
2022-08-20T19:49:09.555Z,2.15
2022-08-20T19:52:22.577Z,1.98
2022-08-20T19:55:37.902Z,2.50
2022-08-20T19:58:40.564Z,1.13
2022-08-20T20:01:52.552Z,1.10
2022-08-20T20:04:54.902Z,0.75
2022-08-20T20:07:58.797Z,1.30
2022-08-20T20:11:00.875Z,0.88
2022-08-20T20:14:08.989Z,1.05
2022-08-20T20:17:21.010Z,0.90
2022-08-20T20:20:30.978Z,0.98
2022-08-20T20:23:38.512Z,0.80
2022-08-20T20:26:49.331Z,1.52
2022-08-20T20:30:02.858Z,0.77
2022-08-20T20:33:17.310Z,1.00
2022-08-20T20:36:32.885Z,0.80
2022-08-20T20:39:45.962Z,0.97
2022-08-20T20:43:00.188Z,2.55
2022-08-20T20:46:16.010Z,0.60
2022-08-20T20:49:30.220Z,0.50
2022-08-20T20:52:54.631Z,0.80
2022-08-20T20:55:58.041Z,1.02
2022-08-20T20:59:05.923Z,0.82
2022-08-20T21:02:09.428Z,0.95
2022-08-20T21:05:13.088Z,1.00
2022-08-20T21:08:14.966Z,1.13
2022-08-20T21:11:16.704Z,0.95
2022-08-20T21:14:18.907Z,1.10
2022-08-20T21:17:22.774Z,0.95
2022-08-20T21:20:24.922Z,0.80
2022-08-20T21:23:40.227Z,1.20
2022-08-20T21:26:44.714Z,1.08
2022-08-20T21:29:46.638Z,1.15
2022-08-20T21:32:49.392Z,1.10
2022-08-20T21:35:53.938Z,0.88
2022-08-20T21:38:56.222Z,1.40
2022-08-20T21:42:01.263Z,1.23
2022-08-20T21:45:03.611Z,1.50
2022-08-20T21:48:05.530Z,1.23
2022-08-20T21:51:07.260Z,1.05
2022-08-20T21:54:08.964Z,2.42
2022-08-20T21:57:19.615Z,0.57
2022-08-20T22:00:49.936Z,0.90
2022-08-20T22:03:52.032Z,1.83
2022-08-20T22:06:54.224Z,0.55
2022-08-20T22:09:55.994Z,1.23
2022-08-20T22:12:58.287Z,1.10
2022-08-20T22:16:03.538Z,0.88
2022-08-20T22:19:05.287Z,1.40
2022-08-20T22:22:10.698Z,1.42
2022-08-20T22:25:12.502Z,1.88
2022-08-20T22:28:15.485Z,1.13
2022-08-20T22:31:25.706Z,1.30
2022-08-20T22:34:31.284Z,1.30
2022-08-20T22:37:33.284Z,1.88
2022-08-20T22:40:36.768Z,1.08
2022-08-20T22:43:46.271Z,1.30
2022-08-20T22:47:04.797Z,1.00
2022-08-20T22:50:07.879Z,1.13
2022-08-20T22:53:10.837Z,1.15
2022-08-20T22:56:19.919Z,0.80
2022-08-20T22:59:24.329Z,1.08
2022-08-20T23:02:26.273Z,0.98
2022-08-20T23:05:31.050Z,2.50
2022-08-20T23:08:32.921Z,1.20
2022-08-20T23:11:34.708Z,0.88
2022-08-20T23:14:36.906Z,0.52
2022-08-20T23:17:38.901Z,0.80
2022-08-20T23:20:43.094Z,1.70
2022-08-20T23:23:44.867Z,0.70
2022-08-20T23:26:53.367Z,1.80
2022-08-20T23:29:55.449Z,0.55
2022-08-20T23:32:57.372Z,0.98
2022-08-20T23:36:04.197Z,1.05
2022-08-20T23:39:07.446Z,0.63
2022-08-20T23:42:11.010Z,0.63
2022-08-20T23:45:13.896Z,0.63
2022-08-20T23:48:15.680Z,0.45
2022-08-20T23:51:17.502Z,0.70
2022-08-20T23:54:19.622Z,0.93
2022-08-20T23:57:21.319Z,1.10
